Terminal Aerodrome Forecast
Issued by NWS Jackson, MS

Home | Current Version | Previous Version | Text Only | Print | Product List | Glossary On
Versions: 1 2 3 4 5 6 7 8 9 10 11 12 13 14 15 16 17 18 19 20
000
FTUS44 KJAN 050300 AAB
TAFGWO
TAF AMD
KGWO 050309Z 0503/0524 01013G23KT P6SM OVC010
     FM050600 01023G30KT 4SM -FZRA BR OVC010
     FM051100 01025G33KT 5SM -FZRAPL OVC007
     FM051600 01020G27KT 6SM -SN BKN010 OVC025
     FM051800 01017KT P6SM OVC015=

USA.gov is the U.S. government's official web portal to all federal, state and local government web resources and services.